Bei Facebook empfehlenBei Twitter postenGoogle plusPinterest

Das Wetter im Erzgebirge am 09.05.2015

Wetter und Klima am 09.05.2015 Holzhau im Erzgebirge (630m ü.NN)
Letzte gemessene Temperatur und Uhrzeit der Messung23:45:00 Uhr8.90 °C
Temperatur (Maximum / Höchstwert) und Uhrzeit der Messung12:45:00 Uhr19.30 °C
Temperatur (Minimum / Tiefstwert) und Uhrzeit der Messung00:30:008.10 °C
Errechneter Absolutwert der Temperaturschwankungen zwischen Tmin und Tmax des Tages11.20 K
Errechnete Tagesmitteltemperatur12.42188 °C
Gesamt - Niederschlag des Tages (in flüssiger Form)7.25 Liter / m²
Luftdruck (Maximum / Höchstwert) und Zeitpunkt der Messung23:45:00 Uhr1018.20 hPa
Luftdruck (Minimum / Tiefstwert) und Zeitpunkt der Messung03:00:00 Uhr1013.80 hPa
Errechneter Absolutwert der Luftdruckschwankungen des Tages4.40 hPa
Höchste gemessene Windgeschwindigkeit und Uhrzeit der Messung17:15:00 Uhr10.80 km/h
Errechnete Windhäufigkeit in Relation zu den Messwerten des Tages5.20833 %
Niedrigste Windkühle (Windchill) und Zeitpunkt der Messung00:30:00 Uhr8.10 °C
Taupunkt (Maximum / Höchstwert) und Uhrzeit der Messung09:00:00 Uhr11.80 °C
Taupunkt (Minimum / Tiefstwert) und Uhrzeit der Messung00:15:004.80 °C
Anzahl der automatisch eingelesenen Messwerte 96

Detaillierte Wetter- und Klima- Messwerte für den 09.05.2015 in Holzhau im Erzgebirge (630m ü.NN)
ZeitTemperaturLuftdruckRel. LuftfeuchteWindWindrichtungWindchillTaupunktNiederschlag l/m²
23:45:008.90 °C1018.20 hPa91.00 %7.50 °C7.25
23:30:008.90 °C1018.20 hPa90.00 %7.40 °C6.73
23:15:008.80 °C1017.80 hPa90.00 %7.30 °C5.69
23:00:008.90 °C1017.40 hPa90.00 %7.40 °C5.18
22:45:008.90 °C1017.60 hPa90.00 %7.40 °C5.18
22:30:009.10 °C1017.10 hPa89.00 %7.40 °C5.18
22:15:009.50 °C1017.30 hPa89.00 %7.80 °C5.18
22:00:009.80 °C1018.00 hPa90.00 %8.20 °C4.66
21:45:009.40 °C1017.00 hPa90.00 %7.80 °C4.66
21:30:009.30 °C1016.90 hPa90.00 %7.70 °C4.66
21:15:009.30 °C1016.90 hPa89.00 %7.60 °C4.66
21:00:009.60 °C1016.80 hPa88.00 %7.70 °C4.66
20:45:0010.20 °C1016.60 hPa88.00 %8.30 °C4.66
20:30:0010.60 °C1016.50 hPa87.00 %8.50 °C4.66
20:15:0011.20 °C1016.30 hPa86.00 %8.90 °C4.66
20:00:0011.80 °C1016.30 hPa86.00 %9.50 °C4.66
19:45:0011.90 °C1016.20 hPa86.00 %9.60 °C4.66
19:30:0012.30 °C1016.10 hPa86.00 %10.00 °C4.66
19:15:0012.40 °C1015.90 hPa86.00 %10.10 °C4.66
19:00:0012.90 °C1015.90 hPa86.00 %10.60 °C4.66
18:45:0012.90 °C1015.80 hPa85.00 %10.40 °C4.66
18:30:0012.90 °C1016.00 hPa86.00 %10.60 °C4.66
18:15:0012.60 °C1015.90 hPa85.00 %10.10 °C4.66
18:00:0012.40 °C1016.00 hPa84.00 %9.80 °C4.66
17:45:0012.30 °C1016.00 hPa82.00 %9.30 °C4.66
17:30:0012.80 °C1016.20 hPa77.00 %8.90 °C4.66
17:15:0015.30 °C1016.10 hPa77.00 %10.80 km/hSW14.90 °C11.30 °C3.62
17:00:0016.40 °C1015.60 hPa73.00 %11.60 °C3.10
16:45:0016.30 °C1015.80 hPa74.00 %11.70 °C3.10
16:30:0015.90 °C1015.80 hPa75.00 %11.50 °C3.10
16:15:0014.90 °C1015.80 hPa79.00 %11.30 °C3.10
16:00:0013.40 °C1016.00 hPa78.00 %9.60 °C3.10
15:45:0013.40 °C1016.20 hPa71.00 %8.30 °C3.10
15:30:0017.10 °C1016.30 hPa58.00 %8.80 °C1.55
15:15:0018.60 °C1015.60 hPa55.00 %9.40 °C1.55
15:00:0019.00 °C1015.70 hPa56.00 %10.00 °C1.55
14:45:0018.40 °C1015.70 hPa58.00 %10.00 °C1.55
14:30:0017.60 °C1015.70 hPa62.00 %10.20 °C1.55
14:15:0016.20 °C1015.90 hPa66.00 %9.80 °C1.55
14:00:0017.10 °C1015.70 hPa59.00 %9.00 °C1.55
13:45:0017.80 °C1015.70 hPa57.00 %10.08 km/hSW17.90 °C9.20 °C1.55
13:30:0017.90 °C1015.70 hPa56.00 %9.00 °C1.55
13:15:0018.30 °C1015.80 hPa56.00 %9.40 °C1.55
13:00:0018.60 °C1015.70 hPa54.00 %9.10 °C1.55
12:45:0019.30 °C1015.60 hPa54.00 %9.80 °C1.55
12:30:0018.40 °C1015.80 hPa58.00 %10.00 °C1.55
12:15:0018.40 °C1015.60 hPa55.00 %6.84 km/hW19.00 °C9.20 °C1.55
12:00:0018.20 °C1015.50 hPa59.00 %10.10 °C1.55
11:45:0017.60 °C1015.70 hPa57.00 %9.00 °C1.55
11:30:0018.20 °C1015.80 hPa57.00 %9.50 °C1.55
11:15:0017.90 °C1015.70 hPa57.00 %0.72 km/hWSW17.90 °C9.30 °C1.55
11:00:0017.30 °C1015.80 hPa59.00 %9.20 °C1.55
10:45:0016.80 °C1015.80 hPa60.00 %9.00 °C1.55
10:30:0016.80 °C1015.60 hPa61.00 %9.20 °C1.55
10:15:0016.30 °C1015.60 hPa62.00 %9.00 °C1.55
10:00:0016.40 °C1015.50 hPa66.00 %6.48 km/hWNW16.70 °C10.00 °C1.55
09:45:0015.90 °C1015.40 hPa70.00 %10.40 °C1.55
09:30:0015.30 °C1015.30 hPa75.00 %10.90 °C1.55
09:15:0014.50 °C1015.30 hPa80.00 %11.10 °C1.55
09:00:0013.60 °C1015.40 hPa89.00 %11.80 °C1.55
08:45:0012.60 °C1015.50 hPa90.00 %11.00 °C1.55
08:30:0011.60 °C1015.20 hPa90.00 %10.00 °C1.55
08:15:0011.10 °C1015.20 hPa90.00 %9.50 °C1.55
08:00:0010.70 °C1015.20 hPa91.00 %9.30 °C1.55
07:45:009.90 °C1015.30 hPa90.00 %8.30 °C1.55
07:30:009.60 °C1015.40 hPa90.00 %8.00 °C1.55
07:15:009.30 °C1015.30 hPa89.00 %7.60 °C1.55
07:00:009.20 °C1015.20 hPa89.00 %7.50 °C1.55
06:45:009.10 °C1015.50 hPa89.00 %7.40 °C1.55
06:30:009.00 °C1015.30 hPa89.00 %7.30 °C1.03
06:15:008.80 °C1015.20 hPa89.00 %7.10 °C1.03
06:00:008.90 °C1015.00 hPa89.00 %7.20 °C1.03
05:45:008.80 °C1014.70 hPa88.00 %6.90 °C0.51
05:30:008.80 °C1015.00 hPa87.00 %6.80 °C0.51
05:15:008.80 °C1014.80 hPa86.00 %6.60 °C0.51
05:00:008.90 °C1014.70 hPa84.00 %6.30 °C 
04:45:009.10 °C1014.40 hPa82.00 %6.20 °C 
04:30:009.40 °C1014.40 hPa80.00 %6.10 °C 
04:15:009.80 °C1014.10 hPa79.00 %6.30 °C 
04:00:009.80 °C1014.00 hPa78.00 %6.20 °C 
03:45:009.80 °C1014.00 hPa78.00 %6.20 °C 
03:30:009.80 °C1014.10 hPa78.00 %6.20 °C 
03:15:009.80 °C1013.90 hPa78.00 %6.20 °C 
03:00:009.60 °C1013.80 hPa78.00 %6.00 °C 
02:45:009.40 °C1013.80 hPa78.00 %5.80 °C 
02:30:009.30 °C1013.80 hPa78.00 %5.70 °C 
02:15:009.30 °C1013.80 hPa78.00 %5.70 °C 
02:00:009.50 °C1013.80 hPa78.00 %5.90 °C 
01:45:009.50 °C1014.00 hPa78.00 %5.90 °C 
01:30:009.30 °C1013.90 hPa78.00 %5.70 °C 
01:15:009.10 °C1014.10 hPa79.00 %5.70 °C 
01:00:008.90 °C1014.30 hPa79.00 %5.50 °C 
00:45:008.80 °C1014.10 hPa80.00 %5.50 °C 
00:30:008.10 °C1014.20 hPa80.00 %4.90 °C 
00:15:008.20 °C1014.30 hPa79.00 %4.80 °C 
00:00:008.20 °C1014.20 hPa80.00 %5.00 °C 

Permanenter Link zu dieser Seite: Wetter im Erzgebirge am 09.05.2015
Performance-Info: Die Erstellung der Seite / Statistik(en) / Tabelle(n) erforderte 5 Datenbankserver-Abfrage(n) und dauerte 100 Millisekunden. (Dieser Messwert ist von der Gesamt-Auslastung des Servers abhängig.)
Erzgebirge - Wetter | Erzgebirge - Wetter (Mobilgeräte) | Komplette Klimadatenbank